sensor_id;sensor_type;location;lat;lon;timestamp;temperature;humidity
47368;DHT22;34646;47.964;7.982;2022-12-07T00:04:49;17.20;68.00
47368;DHT22;34646;47.964;7.982;2022-12-07T00:10:50;17.20;68.00
47368;DHT22;34646;47.964;7.982;2022-12-07T00:16:51;17.20;68.00
47368;DHT22;34646;47.964;7.982;2022-12-07T00:22:52;17.20;68.00
47368;DHT22;34646;47.964;7.982;2022-12-07T00:28:58;17.20;68.00
47368;DHT22;34646;47.964;7.982;2022-12-07T00:34:59;17.10;68.00
47368;DHT22;34646;47.964;7.982;2022-12-07T00:41:15;17.10;68.00
47368;DHT22;34646;47.964;7.982;2022-12-07T00:47:16;17.10;68.60
47368;DHT22;34646;47.964;7.982;2022-12-07T00:53:17;17.10;68.00
47368;DHT22;34646;47.964;7.982;2022-12-07T00:59:18;17.10;68.00
47368;DHT22;34646;47.964;7.982;2022-12-07T01:05:19;17.10;68.10
47368;DHT22;34646;47.964;7.982;2022-12-07T01:11:22;17.00;68.00
47368;DHT22;34646;47.964;7.982;2022-12-07T01:17:23;17.00;68.00
47368;DHT22;34646;47.964;7.982;2022-12-07T01:23:24;17.00;68.00
47368;DHT22;34646;47.964;7.982;2022-12-07T01:29:25;17.00;68.00
47368;DHT22;34646;47.964;7.982;2022-12-07T01:35:25;17.00;68.00
47368;DHT22;34646;47.964;7.982;2022-12-07T01:41:32;16.90;68.00
47368;DHT22;34646;47.964;7.982;2022-12-07T01:47:33;16.90;68.00
47368;DHT22;34646;47.964;7.982;2022-12-07T01:53:34;16.90;68.00
47368;DHT22;34646;47.964;7.982;2022-12-07T01:59:36;16.90;68.10
47368;DHT22;34646;47.964;7.982;2022-12-07T02:05:40;16.90;68.10
47368;DHT22;34646;47.964;7.982;2022-12-07T02:11:41;16.90;68.10
47368;DHT22;34646;47.964;7.982;2022-12-07T02:24:00;16.80;68.00
47368;DHT22;34646;47.964;7.982;2022-12-07T02:30:13;16.80;68.00
47368;DHT22;34646;47.964;7.982;2022-12-07T02:36:20;16.80;68.10
47368;DHT22;34646;47.964;7.982;2022-12-07T02:42:28;16.80;68.10
47368;DHT22;34646;47.964;7.982;2022-12-07T02:48:32;16.80;68.10
47368;DHT22;34646;47.964;7.982;2022-12-07T02:54:34;16.80;68.10
47368;DHT22;34646;47.964;7.982;2022-12-07T03:00:55;16.70;68.10
47368;DHT22;34646;47.964;7.982;2022-12-07T03:07:05;16.70;68.10
47368;DHT22;34646;47.964;7.982;2022-12-07T03:19:15;16.70;68.10
47368;DHT22;34646;47.964;7.982;2022-12-07T03:25:18;16.70;68.10
47368;DHT22;34646;47.964;7.982;2022-12-07T03:31:25;16.70;68.10
47368;DHT22;34646;47.964;7.982;2022-12-07T03:37:35;16.60;68.10
47368;DHT22;34646;47.964;7.982;2022-12-07T03:43:37;16.60;68.10
47368;DHT22;34646;47.964;7.982;2022-12-07T03:49:55;16.60;68.10
47368;DHT22;34646;47.964;7.982;2022-12-07T03:55:59;16.60;68.10
47368;DHT22;34646;47.964;7.982;2022-12-07T04:02:05;16.60;68.10
47368;DHT22;34646;47.964;7.982;2022-12-07T04:08:06;16.60;68.10
47368;DHT22;34646;47.964;7.982;2022-12-07T04:14:07;16.60;68.10
47368;DHT22;34646;47.964;7.982;2022-12-07T04:20:19;16.50;68.10
47368;DHT22;34646;47.964;7.982;2022-12-07T04:26:20;16.50;68.10
47368;DHT22;34646;47.964;7.982;2022-12-07T04:32:21;16.50;68.10
47368;DHT22;34646;47.964;7.982;2022-12-07T04:38:22;16.50;68.10
47368;DHT22;34646;47.964;7.982;2022-12-07T04:44:24;16.50;68.10
47368;DHT22;34646;47.964;7.982;2022-12-07T04:50:25;16.50;68.10
47368;DHT22;34646;47.964;7.982;2022-12-07T04:56:26;16.50;68.10
47368;DHT22;34646;47.964;7.982;2022-12-07T05:02:27;16.60;68.00
47368;DHT22;34646;47.964;7.982;2022-12-07T05:08:28;16.60;67.80
47368;DHT22;34646;47.964;7.982;2022-12-07T05:14:28;16.70;67.70
47368;DHT22;34646;47.964;7.982;2022-12-07T05:20:29;16.70;67.60
47368;DHT22;34646;47.964;7.982;2022-12-07T05:26:30;16.70;67.50
47368;DHT22;34646;47.964;7.982;2022-12-07T05:32:31;16.70;67.50
47368;DHT22;34646;47.964;7.982;2022-12-07T05:38:32;16.80;67.50
47368;DHT22;34646;47.964;7.982;2022-12-07T05:44:33;16.80;67.50
47368;DHT22;34646;47.964;7.982;2022-12-07T05:50:34;17.10;67.40
47368;DHT22;34646;47.964;7.982;2022-12-07T05:56:34;17.10;67.00
47368;DHT22;34646;47.964;7.982;2022-12-07T06:02:35;17.10;67.00
47368;DHT22;34646;47.964;7.982;2022-12-07T06:08:36;17.20;67.10
47368;DHT22;34646;47.964;7.982;2022-12-07T06:14:37;17.20;67.10
47368;DHT22;34646;47.964;7.982;2022-12-07T06:20:37;17.10;66.90
47368;DHT22;34646;47.964;7.982;2022-12-07T06:26:38;17.20;67.20
47368;DHT22;34646;47.964;7.982;2022-12-07T06:32:39;17.20;67.50
47368;DHT22;34646;47.964;7.982;2022-12-07T06:38:40;17.10;67.40
47368;DHT22;34646;47.964;7.982;2022-12-07T06:44:41;17.00;67.60
47368;DHT22;34646;47.964;7.982;2022-12-07T06:50:47;17.00;67.60
47368;DHT22;34646;47.964;7.982;2022-12-07T06:56:48;16.90;67.70
47368;DHT22;34646;47.964;7.982;2022-12-07T07:02:48;16.90;67.70
47368;DHT22;34646;47.964;7.982;2022-12-07T07:08:49;16.80;67.70
47368;DHT22;34646;47.964;7.982;2022-12-07T07:14:50;16.80;67.80
47368;DHT22;34646;47.964;7.982;2022-12-07T07:20:51;16.80;67.80
47368;DHT22;34646;47.964;7.982;2022-12-07T07:26:52;16.70;67.90
47368;DHT22;34646;47.964;7.982;2022-12-07T07:33:00;16.70;68.00
47368;DHT22;34646;47.964;7.982;2022-12-07T07:39:01;16.70;68.00
47368;DHT22;34646;47.964;7.982;2022-12-07T07:45:02;16.70;68.10
47368;DHT22;34646;47.964;7.982;2022-12-07T07:51:06;16.70;68.10
47368;DHT22;34646;47.964;7.982;2022-12-07T07:57:07;16.60;68.00
47368;DHT22;34646;47.964;7.982;2022-12-07T08:03:08;16.60;68.10
47368;DHT22;34646;47.964;7.982;2022-12-07T08:09:08;16.60;68.10
47368;DHT22;34646;47.964;7.982;2022-12-07T08:15:10;16.60;68.20
47368;DHT22;34646;47.964;7.982;2022-12-07T08:21:13;16.50;68.10
47368;DHT22;34646;47.964;7.982;2022-12-07T08:27:14;16.50;68.10
47368;DHT22;34646;47.964;7.982;2022-12-07T08:33:15;16.50;68.20
47368;DHT22;34646;47.964;7.982;2022-12-07T08:39:15;16.50;68.20
47368;DHT22;34646;47.964;7.982;2022-12-07T08:45:17;16.50;68.20
47368;DHT22;34646;47.964;7.982;2022-12-07T08:51:18;16.50;68.20
47368;DHT22;34646;47.964;7.982;2022-12-07T08:57:19;16.50;68.20
47368;DHT22;34646;47.964;7.982;2022-12-07T09:03:20;16.50;68.20
47368;DHT22;34646;47.964;7.982;2022-12-07T09:09:21;16.50;68.20
47368;DHT22;34646;47.964;7.982;2022-12-07T09:15:21;16.50;68.20
47368;DHT22;34646;47.964;7.982;2022-12-07T09:21:22;16.50;68.10
47368;DHT22;34646;47.964;7.982;2022-12-07T09:27:23;16.50;68.20
47368;DHT22;34646;47.964;7.982;2022-12-07T09:33:23;16.40;68.10
47368;DHT22;34646;47.964;7.982;2022-12-07T09:39:24;16.40;68.10
47368;DHT22;34646;47.964;7.982;2022-12-07T09:45:35;16.40;68.10
47368;DHT22;34646;47.964;7.982;2022-12-07T09:51:36;16.40;68.10
47368;DHT22;34646;47.964;7.982;2022-12-07T09:57:38;16.40;68.10
47368;DHT22;34646;47.964;7.982;2022-12-07T10:03:41;16.40;68.10
47368;DHT22;34646;47.964;7.982;2022-12-07T10:09:42;16.40;68.10
47368;DHT22;34646;47.964;7.982;2022-12-07T10:15:52;16.40;68.10
47368;DHT22;34646;47.964;7.982;2022-12-07T10:22:12;16.40;68.10
47368;DHT22;34646;47.964;7.982;2022-12-07T10:28:14;16.40;68.10
47368;DHT22;34646;47.964;7.982;2022-12-07T10:34:24;16.30;68.00
47368;DHT22;34646;47.964;7.982;2022-12-07T10:40:32;16.40;68.10
47368;DHT22;34646;47.964;7.982;2022-12-07T10:46:46;16.30;67.90
47368;DHT22;34646;47.964;7.982;2022-12-07T11:06:04;16.30;67.90
47368;DHT22;34646;47.964;7.982;2022-12-07T11:12:29;16.40;67.90
47368;DHT22;34646;47.964;7.982;2022-12-07T11:18:59;16.50;67.70
47368;DHT22;34646;47.964;7.982;2022-12-07T11:25:31;16.70;67.30
47368;DHT22;34646;47.964;7.982;2022-12-07T11:38:11;17.30;66.10
47368;DHT22;34646;47.964;7.982;2022-12-07T11:50:40;17.70;65.00
47368;DHT22;34646;47.964;7.982;2022-12-07T11:56:42;17.80;64.80
47368;DHT22;34646;47.964;7.982;2022-12-07T12:02:58;18.10;64.20
47368;DHT22;34646;47.964;7.982;2022-12-07T12:09:25;18.20;63.90
47368;DHT22;34646;47.964;7.982;2022-12-07T12:15:39;18.50;63.70
47368;DHT22;34646;47.964;7.982;2022-12-07T12:21:46;18.60;63.40
47368;DHT22;34646;47.964;7.982;2022-12-07T12:27:49;18.90;63.10
47368;DHT22;34646;47.964;7.982;2022-12-07T12:33:53;18.90;62.80
47368;DHT22;34646;47.964;7.982;2022-12-07T12:52:50;19.00;63.20
47368;DHT22;34646;47.964;7.982;2022-12-07T13:05:23;19.00;63.80
47368;DHT22;34646;47.964;7.982;2022-12-07T13:11:31;19.00;63.90
47368;DHT22;34646;47.964;7.982;2022-12-07T13:29:46;19.20;64.10
47368;DHT22;34646;47.964;7.982;2022-12-07T13:35:47;19.20;64.20
47368;DHT22;34646;47.964;7.982;2022-12-07T13:41:53;19.10;64.40
47368;DHT22;34646;47.964;7.982;2022-12-07T13:47:56;19.10;64.60
47368;DHT22;34646;47.964;7.982;2022-12-07T13:54:10;19.10;64.80
47368;DHT22;34646;47.964;7.982;2022-12-07T14:00:26;19.10;65.10
47368;DHT22;34646;47.964;7.982;2022-12-07T14:06:27;19.00;65.40
47368;DHT22;34646;47.964;7.982;2022-12-07T14:12:29;19.00;65.80
47368;DHT22;34646;47.964;7.982;2022-12-07T14:18:36;19.20;65.70
47368;DHT22;34646;47.964;7.982;2022-12-07T14:24:42;19.30;65.60
47368;DHT22;34646;47.964;7.982;2022-12-07T14:30:43;19.40;65.60
47368;DHT22;34646;47.964;7.982;2022-12-07T14:36:44;19.40;65.60
47368;DHT22;34646;47.964;7.982;2022-12-07T14:42:46;19.30;65.40
47368;DHT22;34646;47.964;7.982;2022-12-07T14:48:48;19.20;65.10
47368;DHT22;34646;47.964;7.982;2022-12-07T14:54:48;19.10;64.80
47368;DHT22;34646;47.964;7.982;2022-12-07T15:00:49;19.10;64.90
47368;DHT22;34646;47.964;7.982;2022-12-07T15:07:02;19.00;65.00
47368;DHT22;34646;47.964;7.982;2022-12-07T15:13:03;18.90;65.10
47368;DHT22;34646;47.964;7.982;2022-12-07T15:19:23;18.90;65.40
47368;DHT22;34646;47.964;7.982;2022-12-07T15:25:26;18.80;65.50
47368;DHT22;34646;47.964;7.982;2022-12-07T15:31:26;18.70;65.60
47368;DHT22;34646;47.964;7.982;2022-12-07T15:37:27;18.80;65.60
47368;DHT22;34646;47.964;7.982;2022-12-07T15:43:28;19.10;65.30
47368;DHT22;34646;47.964;7.982;2022-12-07T15:49:47;19.10;64.90
47368;DHT22;34646;47.964;7.982;2022-12-07T15:55:47;19.30;64.50
47368;DHT22;34646;47.964;7.982;2022-12-07T16:01:48;19.30;64.40
47368;DHT22;34646;47.964;7.982;2022-12-07T16:07:49;19.20;64.60
47368;DHT22;34646;47.964;7.982;2022-12-07T16:13:50;19.10;64.70
47368;DHT22;34646;47.964;7.982;2022-12-07T16:19:50;19.10;64.80
47368;DHT22;34646;47.964;7.982;2022-12-07T16:25:51;19.00;64.90
47368;DHT22;34646;47.964;7.982;2022-12-07T16:31:52;19.00;65.10
47368;DHT22;34646;47.964;7.982;2022-12-07T16:37:52;18.90;65.30
47368;DHT22;34646;47.964;7.982;2022-12-07T16:43:53;18.80;65.60
47368;DHT22;34646;47.964;7.982;2022-12-07T16:49:54;18.80;65.60
47368;DHT22;34646;47.964;7.982;2022-12-07T16:55:55;18.70;65.60
47368;DHT22;34646;47.964;7.982;2022-12-07T17:01:55;18.90;65.20
47368;DHT22;34646;47.964;7.982;2022-12-07T17:07:57;19.10;64.70
47368;DHT22;34646;47.964;7.982;2022-12-07T17:13:58;19.20;64.20
47368;DHT22;34646;47.964;7.982;2022-12-07T17:20:18;19.40;64.10
47368;DHT22;34646;47.964;7.982;2022-12-07T17:26:23;19.30;64.40
47368;DHT22;34646;47.964;7.982;2022-12-07T17:32:24;19.30;64.80
47368;DHT22;34646;47.964;7.982;2022-12-07T17:38:25;19.30;65.10
47368;DHT22;34646;47.964;7.982;2022-12-07T17:44:27;19.10;65.10
47368;DHT22;34646;47.964;7.982;2022-12-07T17:50:28;19.10;65.40
47368;DHT22;34646;47.964;7.982;2022-12-07T17:56:47;19.00;65.70
47368;DHT22;34646;47.964;7.982;2022-12-07T18:02:48;19.00;65.90
47368;DHT22;34646;47.964;7.982;2022-12-07T18:08:48;19.00;66.30
47368;DHT22;34646;47.964;7.982;2022-12-07T18:14:49;18.80;66.60
47368;DHT22;34646;47.964;7.982;2022-12-07T18:20:50;18.90;66.70
47368;DHT22;34646;47.964;7.982;2022-12-07T18:26:51;19.00;66.20
47368;DHT22;34646;47.964;7.982;2022-12-07T18:32:52;19.10;66.00
47368;DHT22;34646;47.964;7.982;2022-12-07T18:38:53;19.10;65.80
47368;DHT22;34646;47.964;7.982;2022-12-07T18:44:53;19.10;65.80
47368;DHT22;34646;47.964;7.982;2022-12-07T18:51:02;19.00;66.00
47368;DHT22;34646;47.964;7.982;2022-12-07T18:57:03;18.90;66.00
47368;DHT22;34646;47.964;7.982;2022-12-07T19:03:04;18.80;66.20
47368;DHT22;34646;47.964;7.982;2022-12-07T19:09:05;18.70;66.30
47368;DHT22;34646;47.964;7.982;2022-12-07T19:15:07;18.70;66.60
47368;DHT22;34646;47.964;7.982;2022-12-07T19:21:08;18.60;66.80
47368;DHT22;34646;47.964;7.982;2022-12-07T19:27:09;18.70;67.00
47368;DHT22;34646;47.964;7.982;2022-12-07T19:33:10;18.70;67.00
47368;DHT22;34646;47.964;7.982;2022-12-07T19:39:11;18.50;67.20
47368;DHT22;34646;47.964;7.982;2022-12-07T19:45:12;18.60;67.10
47368;DHT22;34646;47.964;7.982;2022-12-07T19:51:12;18.60;66.80
47368;DHT22;34646;47.964;7.982;2022-12-07T19:57:13;18.60;66.20
47368;DHT22;34646;47.964;7.982;2022-12-07T20:03:15;18.70;65.90
47368;DHT22;34646;47.964;7.982;2022-12-07T20:09:16;18.60;65.90
47368;DHT22;34646;47.964;7.982;2022-12-07T20:15:17;18.60;66.00
47368;DHT22;34646;47.964;7.982;2022-12-07T20:21:18;18.60;66.20
47368;DHT22;34646;47.964;7.982;2022-12-07T20:27:19;18.50;66.20
47368;DHT22;34646;47.964;7.982;2022-12-07T20:33:20;18.50;66.30
47368;DHT22;34646;47.964;7.982;2022-12-07T20:39:21;18.40;66.40
47368;DHT22;34646;47.964;7.982;2022-12-07T20:45:22;18.40;66.50
47368;DHT22;34646;47.964;7.982;2022-12-07T20:51:23;18.40;66.60
47368;DHT22;34646;47.964;7.982;2022-12-07T20:57:24;18.30;66.60
47368;DHT22;34646;47.964;7.982;2022-12-07T21:03:24;18.30;66.50
47368;DHT22;34646;47.964;7.982;2022-12-07T21:09:25;18.20;66.50
47368;DHT22;34646;47.964;7.982;2022-12-07T21:15:26;18.00;66.90
47368;DHT22;34646;47.964;7.982;2022-12-07T21:21:27;18.20;66.20
47368;DHT22;34646;47.964;7.982;2022-12-07T21:27:27;18.30;65.90
47368;DHT22;34646;47.964;7.982;2022-12-07T21:33:30;18.40;65.70
47368;DHT22;34646;47.964;7.982;2022-12-07T21:39:31;18.40;65.70
47368;DHT22;34646;47.964;7.982;2022-12-07T21:45:32;18.40;65.70
47368;DHT22;34646;47.964;7.982;2022-12-07T21:51:33;18.50;65.70
47368;DHT22;34646;47.964;7.982;2022-12-07T21:57:34;18.50;65.70
47368;DHT22;34646;47.964;7.982;2022-12-07T22:03:37;18.50;65.70
47368;DHT22;34646;47.964;7.982;2022-12-07T22:09:37;18.50;65.70
47368;DHT22;34646;47.964;7.982;2022-12-07T22:15:39;18.50;65.80
47368;DHT22;34646;47.964;7.982;2022-12-07T22:21:40;18.50;65.70
47368;DHT22;34646;47.964;7.982;2022-12-07T22:27:41;18.50;65.80
47368;DHT22;34646;47.964;7.982;2022-12-07T22:33:42;18.50;65.90
47368;DHT22;34646;47.964;7.982;2022-12-07T22:39:42;18.50;65.90
47368;DHT22;34646;47.964;7.982;2022-12-07T22:45:43;18.50;65.90
47368;DHT22;34646;47.964;7.982;2022-12-07T22:51:44;18.50;65.90
47368;DHT22;34646;47.964;7.982;2022-12-07T22:57:45;18.50;65.90
47368;DHT22;34646;47.964;7.982;2022-12-07T23:03:46;18.50;66.60
47368;DHT22;34646;47.964;7.982;2022-12-07T23:09:46;18.50;65.90
47368;DHT22;34646;47.964;7.982;2022-12-07T23:15:47;18.50;66.00
47368;DHT22;34646;47.964;7.982;2022-12-07T23:21:48;18.40;65.90
47368;DHT22;34646;47.964;7.982;2022-12-07T23:27:49;18.40;65.90
47368;DHT22;34646;47.964;7.982;2022-12-07T23:33:49;18.40;66.00
47368;DHT22;34646;47.964;7.982;2022-12-07T23:39:50;18.40;66.00
47368;DHT22;34646;47.964;7.982;2022-12-07T23:45:50;18.40;66.00
47368;DHT22;34646;47.964;7.982;2022-12-07T23:51:51;18.40;66.00
47368;DHT22;34646;47.964;7.982;2022-12-07T23:57:52;18.30;66.60
